Time;durP1;ratioP1;P1;durP2;ratioP2;P2;SDS_P1;SDS_P2;PMS_P1;PMS_P2;Temp;Humidity;BMP_temperature;BMP_pressure;BME280_temperature;BME280_humidity;BME280_pressure;Samples;Min_cycle;Max_cycle;Signal;HPM_P1;HPM_P2
2023/03/26 00:01:45;;;;;;;;;;;11.30;88.40;;;11.57;55.94;98240.34;4941919;28;113909;-76
2023/03/26 00:04:18;;;;;;;;;;;11.30;88.50;;;11.56;56.11;98235.97;4952696;28;123687;-81
2023/03/26 00:06:47;;;;;;;;;;;11.20;88.80;;;11.54;56.02;98243.78;4957168;28;124357;-78
2023/03/26 00:09:14;;;;;;;;;;;11.20;88.80;;;11.51;56.02;98239.72;4951700;28;114916;-78
2023/03/26 00:11:53;;;;;;;;;;;11.20;88.80;;;11.49;56.06;98237.28;4931895;28;114795;-78
2023/03/26 00:14:20;;;;;;;;;;;11.20;88.90;;;11.47;56.19;98233.22;4966703;28;124521;-79
2023/03/26 00:16:49;;;;;;;;;;;11.20;88.80;;;11.42;56.49;98231.47;4946477;28;124278;-81
2023/03/26 00:19:16;;;;;;;;;;;11.20;88.80;;;11.36;56.35;98238.31;4959183;28;114492;-80
2023/03/26 00:21:42;;;;;;;;;;;11.10;89.00;;;11.31;56.78;98235.75;4952483;28;114622;-80
2023/03/26 00:24:16;;;;;;;;;;;11.10;89.10;;;11.25;56.64;98235.09;4943734;28;124739;-78
2023/03/26 00:26:43;;;;;;;;;;;11.00;89.10;;;11.23;56.58;98233.78;4944679;28;124554;-84
2023/03/26 00:29:10;;;;;;;;;;;11.00;89.30;;;11.22;56.56;98229.41;4941676;28;113610;-78
2023/03/26 00:31:40;;;;;;;;;;;11.00;89.30;;;11.21;56.92;98236.09;4942308;28;113101;-79
2023/03/26 00:34:07;;;;;;;;;;;11.00;89.40;;;11.21;56.59;98225.03;4937041;28;124856;-78
2023/03/26 00:36:41;;;;;;;;;;;11.00;89.40;;;11.19;56.62;98235.63;4946688;28;123938;-76
2023/03/26 00:39:09;;;;;;;;;;;10.90;89.30;;;11.16;56.97;98242.63;4938517;28;113814;-77
2023/03/26 00:41:41;;;;;;;;;;;10.90;89.40;;;11.14;57.13;98233.03;4949145;28;113788;-78
2023/03/26 00:44:08;;;;;;;;;;;10.90;89.60;;;11.09;56.82;98231.25;4937625;28;124221;-78
2023/03/26 00:46:38;;;;;;;;;;;10.90;89.70;;;11.06;57.15;98229.16;4940681;28;125210;-77
2023/03/26 00:49:04;;;;;;;;;;;10.80;89.60;;;11.03;57.33;98216.78;4947244;28;114745;-77
2023/03/26 00:51:32;;;;;;;;;;;10.80;90.00;;;11.01;57.13;98215.50;4947728;28;114065;-78
2023/03/26 00:54:02;;;;;;;;;;;10.70;90.00;;;10.96;57.09;98213.75;4941777;28;125224;-79
2023/03/26 00:56:28;;;;;;;;;;;10.70;90.00;;;10.94;57.10;98204.97;4967446;28;123857;-77
2023/03/26 00:58:58;;;;;;;;;;;10.70;90.00;;;10.93;57.27;98208.84;4967533;28;115651;-79
2023/03/26 01:01:29;;;;;;;;;;;10.70;90.00;;;10.93;57.07;98203.31;4969290;28;114298;-80
2023/03/26 01:04:03;;;;;;;;;;;10.70;90.00;;;10.93;57.43;98191.47;4960982;28;123871;-76
2023/03/26 01:06:31;;;;;;;;;;;10.70;90.00;;;10.90;57.33;98187.41;4962620;28;123909;-78
2023/03/26 01:09:17;;;;;;;;;;;10.70;90.00;;;10.90;57.12;98186.59;4960947;28;114388;-77
2023/03/26 01:11:44;;;;;;;;;;;10.70;90.00;;;10.86;57.22;98180.94;4967326;28;113758;-80
2023/03/26 01:14:20;;;;;;;;;;;10.60;90.00;;;10.84;57.48;98177.66;4946355;28;122987;-78
2023/03/26 01:17:05;;;;;;;;;;;10.60;90.00;;;10.82;57.23;98179.94;4962493;28;124082;-80
2023/03/26 01:19:51;;;;;;;;;;;10.60;90.10;;;10.77;57.70;98174.59;4982856;28;114531;-79
2023/03/26 01:22:31;;;;;;;;;;;10.50;90.10;;;10.76;57.29;98165.50;4967288;28;114677;-79
2023/03/26 01:25:06;;;;;;;;;;;10.50;90.20;;;10.76;57.34;98156.41;4972595;28;124168;-78
2023/03/26 01:27:45;;;;;;;;;;;10.50;90.20;;;10.77;57.80;98164.38;4965571;28;124121;-78
2023/03/26 01:30:28;;;;;;;;;;;10.50;90.20;;;10.76;57.28;98154.44;4962673;28;114387;-78
2023/03/26 01:33:04;;;;;;;;;;;10.50;90.20;;;10.74;57.50;98153.16;4971012;28;113334;-78
2023/03/26 01:35:50;;;;;;;;;;;10.50;90.20;;;10.73;57.79;98154.31;4956405;28;124422;-77
2023/03/26 01:38:34;;;;;;;;;;;10.50;90.30;;;10.69;58.09;98151.38;4964129;28;124535;-79
2023/03/26 01:41:17;;;;;;;;;;;10.40;90.30;;;10.68;57.94;98141.47;4987118;28;114398;-80
2023/03/26 01:44:05;;;;;;;;;;;10.40;90.40;;;10.67;58.10;98139.84;4954757;28;114566;-77
2023/03/26 01:46:35;;;;;;;;;;;10.40;90.50;;;10.67;58.11;98128.00;4977712;28;124314;-76
2023/03/26 01:49:04;;;;;;;;;;;10.40;90.50;;;10.68;58.02;98124.09;4967504;28;122767;-77
2023/03/26 01:51:34;;;;;;;;;;;10.40;90.50;;;10.66;58.08;98120.84;4946065;28;114812;-77
2023/03/26 01:54:04;;;;;;;;;;;10.40;90.50;;;10.65;57.91;98114.50;4994966;28;115587;-77
2023/03/26 01:56:52;;;;;;;;;;;10.40;90.50;;;10.63;58.22;98115.97;4972372;28;125294;-76
2023/03/26 01:59:33;;;;;;;;;;;10.80;90.70;;;10.63;58.14;98113.22;4950693;28;124950;-77
2023/03/26 02:02:20;;;;;;;;;;;10.40;90.60;;;10.63;58.37;98110.44;4985188;28;114622;-76
2023/03/26 02:05:16;;;;;;;;;;;10.30;90.70;;;10.63;58.29;98099.41;4988690;28;114078;-77
2023/03/26 02:08:10;;;;;;;;;;;10.30;90.80;;;10.61;58.24;98094.19;4932484;28;124653;-77
2023/03/26 02:10:50;;;;;;;;;;;10.30;90.70;;;10.63;58.13;98089.16;4955462;28;124094;-77
2023/03/26 02:13:16;;;;;;;;;;;10.40;90.80;;;10.65;57.92;98084.13;4976451;28;114415;-76
2023/03/26 02:16:03;;;;;;;;;;;10.40;90.80;;;10.68;58.17;98068.84;4956582;28;113028;-76
2023/03/26 02:18:36;;;;;;;;;;;10.40;90.80;;;10.69;58.12;98059.38;4967683;28;123961;-79
2023/03/26 02:21:20;;;;;;;;;;;10.40;90.70;;;10.70;58.07;98056.31;4967431;28;123209;-77
2023/03/26 02:24:01;;;;;;;;;;;10.40;90.70;;;10.72;58.17;98059.56;4955699;28;115123;-76
2023/03/26 02:26:29;;;;;;;;;;;10.50;90.70;;;10.74;57.87;98057.25;4966296;28;112585;-76
2023/03/26 02:29:02;;;;;;;;;;;10.50;90.80;;;10.74;58.10;98046.19;4953030;28;124676;-78
2023/03/26 02:31:28;;;;;;;;;;;10.50;90.70;;;10.76;58.11;98043.91;4964185;28;123781;-81
2023/03/26 02:33:56;;;;;;;;;;;10.50;90.70;;;10.79;58.13;98042.44;4971495;28;113335;-77
2023/03/26 02:36:31;;;;;;;;;;;10.50;90.70;;;10.82;57.89;98052.84;4970953;28;114345;-80
2023/03/26 02:38:59;;;;;;;;;;;10.50;90.70;;;10.82;57.62;98052.84;4963024;28;125000;-76
2023/03/26 02:41:26;;;;;;;;;;;10.50;90.70;;;10.81;57.49;98049.25;4962287;28;124554;-76
2023/03/26 02:43:54;;;;;;;;;;;10.50;90.70;;;10.77;57.69;98047.50;4988554;28;116050;-76
2023/03/26 02:46:21;;;;;;;;;;;10.50;90.70;;;10.74;57.72;98050.91;4989222;28;114741;-75
2023/03/26 02:48:55;;;;;;;;;;;10.40;90.60;;;10.71;57.60;98044.09;4964087;28;124126;-76
2023/03/26 02:51:26;;;;;;;;;;;10.40;90.60;;;10.70;57.83;98033.41;4957781;28;123817;-76
2023/03/26 02:53:53;;;;;;;;;;;10.40;90.60;;;10.70;57.78;98038.94;4960606;28;114232;-77
2023/03/26 02:56:20;;;;;;;;;;;10.40;90.60;;;10.71;57.58;98035.81;4963954;28;113966;-79
2023/03/26 02:58:53;;;;;;;;;;;10.40;90.60;;;10.71;57.77;98035.00;4960923;28;124228;-78
2023/03/26 03:01:21;;;;;;;;;;;10.40;90.60;;;10.70;57.75;98028.69;4966871;28;124102;-76
2023/03/26 03:03:53;;;;;;;;;;;10.40;90.70;;;10.70;57.96;98014.06;4965259;28;114329;-76
2023/03/26 03:06:20;;;;;;;;;;;10.40;90.70;;;10.68;58.09;98013.59;4992385;28;113566;-76
2023/03/26 03:08:46;;;;;;;;;;;10.40;90.70;;;10.67;57.99;98014.72;4960762;28;124598;-77
2023/03/26 03:11:20;;;;;;;;;;;10.30;90.70;;;10.66;57.75;98002.03;4969355;28;124075;-76
2023/03/26 03:13:46;;;;;;;;;;;10.40;90.80;;;10.64;58.06;98002.41;4953217;28;114466;-76
2023/03/26 03:16:15;;;;;;;;;;;10.30;90.70;;;10.63;58.11;97995.22;4984918;28;114200;-79
2023/03/26 03:18:41;;;;;;;;;;;10.30;90.70;;;10.65;58.08;97992.16;4967230;28;124193;-78
2023/03/26 03:21:08;;;;;;;;;;;10.40;90.80;;;10.65;58.26;97981.09;4955919;28;123890;-76
2023/03/26 03:23:34;;;;;;;;;;;10.40;90.80;;;10.65;58.12;97981.09;4958754;28;114883;-77
2023/03/26 03:26:02;;;;;;;;;;;10.40;90.80;;;10.66;58.01;97979.94;4976524;28;114027;-76
2023/03/26 03:28:29;;;;;;;;;;;10.40;90.70;;;10.66;58.21;97975.22;4972503;28;123105;-76
2023/03/26 03:30:56;;;;;;;;;;;10.40;90.70;;;10.68;58.00;97958.31;4969151;28;122257;-76
2023/03/26 03:33:28;;;;;;;;;;;10.40;90.70;;;10.71;57.63;97952.13;4966136;28;114327;-76
2023/03/26 03:35:54;;;;;;;;;;;10.40;90.70;;;10.74;57.77;97952.25;4985701;28;114628;-76
2023/03/26 03:38:21;;;;;;;;;;;10.40;91.00;;;10.80;57.85;97952.88;4970511;28;123886;-75
2023/03/26 03:40:50;;;;;;;;;;;10.50;90.80;;;10.80;57.35;97947.34;4971691;28;124292;-75
2023/03/26 03:43:16;;;;;;;;;;;11.80;91.30;;;10.81;57.55;97943.47;4969062;28;115473;-75
2023/03/26 03:45:46;;;;;;;;;;;10.50;90.70;;;10.81;57.35;97949.00;4974036;28;112648;-75
2023/03/26 03:48:14;;;;;;;;;;;10.50;90.70;;;10.80;57.93;97945.41;4969075;28;122652;-78
2023/03/26 03:50:40;;;;;;;;;;;10.50;90.60;;;10.78;57.62;97938.59;4982468;28;124278;-76
2023/03/26 03:53:07;;;;;;;;;;;10.50;90.60;;;10.76;57.61;97941.69;4967678;28;114673;-75
2023/03/26 03:55:37;;;;;;;;;;;10.50;90.60;;;10.77;57.94;97942.50;4969275;28;113420;-82
2023/03/26 03:58:04;;;;;;;;;;;10.50;90.60;;;10.77;57.94;97934.22;4976557;28;123771;-78
2023/03/26 04:00:31;;;;;;;;;;;10.50;90.70;;;10.76;57.42;97938.13;4976300;28;123246;-76
2023/03/26 04:03:05;;;;;;;;;;;10.50;90.70;;;10.76;57.74;97936.16;4971925;28;113755;-75
2023/03/26 04:05:31;;;;;;;;;;;10.50;90.70;;;10.76;57.59;97927.88;4974088;28;113932;-76
2023/03/26 04:08:00;;;;;;;;;;;10.50;90.70;;;10.77;58.18;97917.63;4983282;28;124420;-78
2023/03/26 04:10:26;;;;;;;;;;;10.50;90.70;;;10.80;57.75;97922.47;4969030;28;124512;-75
2023/03/26 04:12:54;;;;;;;;;;;10.50;90.80;;;10.81;58.03;97921.34;4969993;28;114520;-75
2023/03/26 04:15:23;;;;;;;;;;;10.50;90.80;;;10.80;58.03;97914.19;4969916;28;114014;-75
2023/03/26 04:17:50;;;;;;;;;;;10.50;90.80;;;10.80;57.75;97905.91;4973817;28;123261;-75
2023/03/26 04:20:18;;;;;;;;;;;10.60;90.80;;;10.80;58.08;97895.69;4981402;28;123490;-75
2023/03/26 04:22:45;;;;;;;;;;;10.50;90.70;;;10.84;57.98;97901.34;4964924;28;115977;-76
2023/03/26 04:25:12;;;;;;;;;;;10.50;90.80;;;10.83;57.71;97895.00;4995834;28;114825;-75
2023/03/26 04:27:40;;;;;;;;;;;10.50;90.70;;;10.86;57.89;97887.19;4976671;28;124066;-75
2023/03/26 04:30:14;;;;;;;;;;;10.60;90.80;;;10.89;57.84;97870.75;4960351;28;123506;-76
2023/03/26 04:32:43;;;;;;;;;;;10.60;90.80;;;10.90;57.80;97877.88;4987557;28;114319;-76
2023/03/26 04:35:15;;;;;;;;;;;10.60;90.80;;;10.92;57.35;97870.06;4972023;28;112768;-76
2023/03/26 04:37:44;;;;;;;;;;;10.60;90.70;;;10.92;57.25;97866.50;4978629;28;123830;-76
2023/03/26 04:40:19;;;;;;;;;;;10.60;90.70;;;10.92;57.33;97859.00;4966639;28;123381;-75
2023/03/26 04:42:45;;;;;;;;;;;10.60;90.70;;;10.94;57.23;97845.66;4966896;28;115237;-78
2023/03/26 04:45:21;;;;;;;;;;;10.60;90.60;;;11.00;57.60;97844.31;4972744;28;113630;-75
2023/03/26 04:47:49;;;;;;;;;;;10.70;90.60;;;11.03;57.23;97843.63;4968978;28;123479;-76
2023/03/26 04:50:19;;;;;;;;;;;10.70;90.60;;;11.08;56.97;97839.03;4964579;28;123427;-77
2023/03/26 04:52:45;;;;;;;;;;;10.70;90.60;;;11.11;57.30;97813.47;4994893;28;113830;-78
2023/03/26 04:55:20;;;;;;;;;;;10.70;90.50;;;11.15;57.15;97817.16;4974209;28;113937;-78
2023/03/26 04:57:56;;;;;;;;;;;10.80;90.50;;;11.18;56.93;97827.56;4984459;28;124045;-78
2023/03/26 05:00:23;;;;;;;;;;;10.80;90.40;;;11.18;56.29;97824.81;4958093;28;123875;-76
2023/03/26 05:02:56;;;;;;;;;;;10.80;90.30;;;11.18;56.36;97827.56;4972248;28;115129;-75
2023/03/26 05:05:23;;;;;;;;;;;10.80;90.20;;;11.18;56.23;97827.56;4970447;28;114936;-76
2023/03/26 05:07:49;;;;;;;;;;;10.80;90.20;;;11.19;56.20;97820.88;4967509;28;124071;-80
2023/03/26 05:10:16;;;;;;;;;;;10.80;90.10;;;11.18;55.67;97822.03;4969386;28;123898;-77
2023/03/26 05:12:42;;;;;;;;;;;10.80;90.00;;;11.19;56.19;97821.69;4968297;28;115410;-75
2023/03/26 05:15:12;;;;;;;;;;;10.80;90.00;;;11.19;55.33;97834.72;4970052;28;115185;-77
2023/03/26 05:17:40;;;;;;;;;;;10.80;89.80;;;11.19;55.27;97829.19;4967354;28;124510;-78
2023/03/26 05:20:15;;;;;;;;;;;10.80;89.60;;;11.19;55.49;97818.13;4984583;28;124561;-77
2023/03/26 05:22:43;;;;;;;;;;;10.80;89.50;;;11.18;55.49;97810.97;4986954;28;113740;-77
2023/03/26 05:25:11;;;;;;;;;;;10.80;89.40;;;11.16;55.68;97808.53;4968094;28;113134;-78
2023/03/26 05:27:38;;;;;;;;;;;10.80;89.30;;;11.16;56.03;97796.69;4969184;28;124799;-77
2023/03/26 05:30:06;;;;;;;;;;;10.80;89.20;;;11.17;55.33;97788.03;4969557;28;124314;-78
2023/03/26 05:32:37;;;;;;;;;;;10.90;89.30;;;11.22;55.70;97778.72;4970600;28;114354;-77
2023/03/26 05:35:04;;;;;;;;;;;10.90;89.20;;;11.24;54.94;97770.91;4970926;28;113791;-79
2023/03/26 05:37:38;;;;;;;;;;;10.50;88.70;;;11.28;55.33;97771.81;4972677;28;124288;-79
2023/03/26 05:40:10;;;;;;;;;;;10.90;89.00;;;11.32;55.01;97769.19;4958828;28;122912;-75
2023/03/26 05:42:37;;;;;;;;;;;11.00;89.60;;;11.31;55.01;97776.69;4997448;28;114427;-75
2023/03/26 05:45:06;;;;;;;;;;;11.00;88.70;;;11.32;55.09;97772.75;4969699;28;114094;-79
2023/03/26 05:47:36;;;;;;;;;;;11.00;88.60;;;11.31;54.62;97760.09;4978988;28;123215;-77
2023/03/26 05:50:05;;;;;;;;;;;11.00;88.50;;;11.30;54.65;97758.47;4973174;28;123798;-79
2023/03/26 05:52:35;;;;;;;;;;;11.00;88.50;;;11.33;54.70;97757.78;4972881;28;113829;-77
2023/03/26 05:55:04;;;;;;;;;;;11.00;88.40;;;11.36;54.94;97757.09;4954669;28;112640;-78
2023/03/26 05:57:30;;;;;;;;;;;11.00;88.20;;;11.38;54.50;97757.56;4984286;28;123310;-75
2023/03/26 05:59:59;;;;;;;;;;;11.00;88.20;;;11.40;54.00;97741.44;4969846;28;123511;-78
2023/03/26 06:02:25;;;;;;;;;;;11.00;87.80;;;11.40;54.28;97738.66;4974282;28;115701;-78
2023/03/26 06:04:55;;;;;;;;;;;11.00;87.70;;;11.41;53.92;97731.97;4971649;28;115007;-78
2023/03/26 06:07:25;;;;;;;;;;;11.00;87.50;;;11.43;53.93;97717.81;4971238;28;123729;-77
2023/03/26 06:09:52;;;;;;;;;;;11.10;87.50;;;11.43;54.11;97704.78;4967921;28;124696;-75
2023/03/26 06:12:18;;;;;;;;;;;11.10;87.40;;;11.46;54.20;97693.03;4986868;28;114465;-77
2023/03/26 06:14:46;;;;;;;;;;;11.10;87.30;;;11.48;53.94;97687.97;4982108;28;111838;-76
2023/03/26 06:17:17;;;;;;;;;;;11.10;87.20;;;11.52;54.05;97693.59;4969208;28;123292;-74
2023/03/26 06:19:46;;;;;;;;;;;11.20;87.30;;;11.56;53.78;97694.53;4968802;28;124048;-77
2023/03/26 06:22:19;;;;;;;;;;;11.20;87.20;;;11.60;53.73;97686.34;4955656;28;114111;-77
2023/03/26 06:24:45;;;;;;;;;;;11.20;87.00;;;11.62;53.63;97675.75;4990261;28;114100;-77
2023/03/26 06:27:14;;;;;;;;;;;11.30;86.90;;;11.65;53.41;97672.28;4968180;28;124174;-77
2023/03/26 06:29:41;;;;;;;;;;;11.30;86.80;;;11.67;53.34;97669.97;4968141;28;124107;-76
2023/03/26 06:32:07;;;;;;;;;;;11.30;86.60;;;11.68;52.95;97666.84;4973394;28;113318;-76
2023/03/26 06:34:33;;;;;;;;;;;11.30;86.40;;;11.70;53.56;97672.84;4967073;28;114098;-77
2023/03/26 06:37:02;;;;;;;;;;;11.40;87.10;;;11.72;53.10;97658.69;4975025;28;125213;-78
2023/03/26 06:39:29;;;;;;;;;;;11.40;86.40;;;11.73;53.16;97665.81;4969410;28;123872;-76
2023/03/26 06:41:55;;;;;;;;;;;11.40;86.30;;;11.75;52.61;97666.28;4966970;28;114708;-80
2023/03/26 06:44:22;;;;;;;;;;;11.40;86.20;;;11.76;52.71;97665.09;4968313;28;114343;-76
2023/03/26 06:46:56;;;;;;;;;;;11.40;86.00;;;11.74;52.51;97661.91;4988980;28;122868;-76
2023/03/26 06:49:22;;;;;;;;;;;11.40;85.90;;;11.73;52.81;97652.78;4966955;28;124130;-78
2023/03/26 06:51:52;;;;;;;;;;;11.40;85.80;;;11.72;52.53;97647.59;4961989;28;115265;-78
2023/03/26 06:54:18;;;;;;;;;;;11.40;85.60;;;11.69;52.71;97648.31;4952230;28;114696;-78
2023/03/26 06:56:44;;;;;;;;;;;11.40;85.60;;;11.66;53.12;97641.50;4963846;28;125743;-78
2023/03/26 06:59:10;;;;;;;;;;;11.20;85.60;;;11.63;52.70;97641.38;4950370;28;124077;-76
2023/03/26 07:01:40;;;;;;;;;;;11.30;85.70;;;11.62;52.90;97648.06;4959641;28;114592;-77
2023/03/26 07:04:06;;;;;;;;;;;11.30;85.70;;;11.60;52.33;97642.06;4950060;28;113981;-78
2023/03/26 07:06:35;;;;;;;;;;;11.30;85.00;;;11.55;52.04;97631.25;4968517;28;123255;-77
2023/03/26 07:09:04;;;;;;;;;;;11.20;84.40;;;11.53;51.99;97633.56;4956459;28;124494;-77
2023/03/26 07:11:31;;;;;;;;;;;11.20;84.40;;;11.53;51.68;97633.56;4969301;28;114658;-77
2023/03/26 07:13:58;;;;;;;;;;;11.20;84.40;;;11.56;51.91;97617.06;4962086;28;114189;-76
2023/03/26 07:16:26;;;;;;;;;;;11.30;84.50;;;11.61;51.98;97614.06;4969668;28;124192;-75
2023/03/26 07:18:54;;;;;;;;;;;11.30;84.50;;;11.64;51.72;97618.09;4959010;28;124038;-77
2023/03/26 07:21:21;;;;;;;;;;;11.30;84.40;;;11.66;51.85;97610.25;4963563;28;114401;-76
2023/03/26 07:23:51;;;;;;;;;;;11.30;84.40;;;11.68;51.81;97607.94;4993340;28;113770;-78
2023/03/26 07:26:55;;;;;;;;;;;11.40;84.50;;;11.70;51.77;97611.16;4968291;28;124184;-76
2023/03/26 07:29:38;;;;;;;;;;;11.40;84.40;;;11.70;51.83;97591.81;4970961;28;123929;-76
2023/03/26 07:32:44;;;;;;;;;;;11.40;84.40;;;11.70;51.77;97589.03;4975538;28;114310;-77
2023/03/26 07:35:51;;;;;;;;;;;11.40;84.40;;;11.71;52.20;97576.81;4924574;28;113325;-77
2023/03/26 07:38:39;;;;;;;;;;;11.40;84.50;;;11.69;52.07;97576.38;4878293;28;123428;-76
2023/03/26 07:41:05;;;;;;;;;;;11.40;84.60;;;11.66;52.45;97571.50;4933736;28;123958;-77
2023/03/26 07:44:10;;;;;;;;;;;11.40;84.90;;;11.67;52.69;97578.69;4926530;28;115663;-76
2023/03/26 07:46:41;;;;;;;;;;;11.40;85.00;;;11.68;52.96;97571.97;4939675;28;113978;-82
2023/03/26 07:49:16;;;;;;;;;;;11.40;85.20;;;11.69;52.72;97577.16;4929164;28;124101;-75
2023/03/26 07:51:43;;;;;;;;;;;11.40;85.30;;;11.72;53.11;97559.06;4945245;28;124077;-77
2023/03/26 07:54:10;;;;;;;;;;;11.40;85.60;;;11.72;53.01;97548.78;4947131;28;114380;-76
2023/03/26 07:57:07;;;;;;;;;;;11.40;85.60;;;11.73;53.34;97549.59;4921559;28;114975;-77
2023/03/26 07:59:51;;;;;;;;;;;11.50;86.00;;;11.75;53.83;97552.81;4919596;28;123016;-76
2023/03/26 08:02:42;;;;;;;;;;;12.70;87.50;;;11.73;53.58;97555.94;4918559;28;122970;-76
2023/03/26 08:05:33;;;;;;;;;;;11.40;86.70;;;11.70;54.50;97553.88;4931257;28;114464;-76
2023/03/26 08:08:19;;;;;;;;;;;11.40;86.90;;;11.73;55.03;97555.13;4979253;28;113615;-78
2023/03/26 08:11:01;;;;;;;;;;;11.40;88.10;;;11.75;55.83;97544.53;4971337;28;124916;-76
2023/03/26 08:13:52;;;;;;;;;;;11.50;89.00;;;11.75;55.67;97549.25;4972276;28;123670;-77
2023/03/26 08:16:55;;;;;;;;;;;11.50;89.50;;;11.70;56.05;97548.34;4960463;28;114351;-77
2023/03/26 08:19:43;;;;;;;;;;;11.50;89.40;;;11.72;56.58;97542.47;4915381;28;114056;-78
2023/03/26 08:22:30;;;;;;;;;;;11.50;89.80;;;11.73;57.09;97508.09;4912919;28;124769;-77
2023/03/26 08:25:31;;;;;;;;;;;11.50;90.30;;;11.72;56.73;97518.34;4914975;28;123436;-76
2023/03/26 08:28:13;;;;;;;;;;;11.50;90.30;;;11.70;57.38;97506.84;4910262;28;114549;-77
2023/03/26 08:30:40;;;;;;;;;;;11.40;90.50;;;11.67;57.20;97506.75;4960448;28;113386;-74
2023/03/26 08:33:21;;;;;;;;;;;11.40;90.40;;;11.66;57.03;97513.41;4965478;28;124962;-76
2023/03/26 08:35:50;;;;;;;;;;;11.40;90.40;;;11.67;57.42;97513.06;4964982;28;122926;-76
2023/03/26 08:38:18;;;;;;;;;;;11.40;90.40;;;11.69;57.47;97504.44;4976441;28;113523;-77
2023/03/26 08:40:57;;;;;;;;;;;11.40;90.50;;;11.71;57.63;97502.09;4962949;28;114853;-77
2023/03/26 08:43:43;;;;;;;;;;;11.40;90.60;;;11.72;57.46;97498.19;4961811;28;124915;-76
2023/03/26 08:46:40;;;;;;;;;;;11.40;90.70;;;11.72;57.42;97489.91;4970343;28;124134;-77
2023/03/26 08:49:25;;;;;;;;;;;11.40;90.70;;;11.73;57.30;97494.25;4967122;28;114760;-76
2023/03/26 08:52:03;;;;;;;;;;;11.50;90.80;;;11.75;57.77;97497.47;4961995;28;113827;-76
2023/03/26 08:55:12;;;;;;;;;;;11.50;90.90;;;11.74;57.70;97501.41;4965242;28;124132;-76
2023/03/26 08:57:38;;;;;;;;;;;11.50;90.90;;;11.70;57.71;97490.22;4966547;28;124052;-76
2023/03/26 09:00:25;;;;;;;;;;;11.40;90.90;;;11.72;57.79;97489.91;4971311;28;107789;-75
2023/03/26 09:03:35;;;;;;;;;;;11.50;91.00;;;11.72;58.25;97478.81;4967875;28;113812;-77
2023/03/26 09:06:21;;;;;;;;;;;11.50;91.10;;;11.75;58.04;97469.81;4969559;28;123135;-77
2023/03/26 09:09:25;;;;;;;;;;;11.50;91.10;;;11.80;58.20;97468.75;4967695;28;123133;-77
2023/03/26 09:12:49;;;;;;;;;;;11.50;91.20;;;11.84;58.29;97478.75;4967182;28;114277;-78
2023/03/26 09:15:36;;;;;;;;;;;11.50;91.30;;;11.90;58.71;97482.09;4969037;28;113725;-76
2023/03/26 09:18:57;;;;;;;;;;;11.50;91.50;;;11.93;58.81;97487.75;4969388;28;123778;-77
2023/03/26 09:21:51;;;;;;;;;;;11.60;91.70;;;11.92;59.22;97490.84;4931808;28;124028;-76
2023/03/26 09:24:35;;;;;;;;;;;11.50;92.00;;;11.92;59.53;97497.19;4927333;28;114418;-85
2023/03/26 09:27:13;;;;;;;;;;;11.50;92.20;;;11.92;59.21;97491.66;4923778;28;113973;-81
2023/03/26 09:29:59;;;;;;;;;;;11.50;92.20;;;11.91;59.49;97490.06;4934342;28;124761;-83
2023/03/26 09:32:59;;;;;;;;;;;11.50;92.30;;;11.90;59.51;97488.47;4944341;28;122402;-84
2023/03/26 09:35:51;;;;;;;;;;;11.60;92.40;;;11.91;59.36;97484.53;4924825;28;114962;-83
2023/03/26 09:38:36;;;;;;;;;;;11.60;92.30;;;11.99;59.65;97481.97;4910838;28;114643;-86
2023/03/26 09:41:13;;;;;;;;;;;11.60;92.40;;;12.10;59.49;97480.28;4912340;28;124237;-86
2023/03/26 09:44:04;;;;;;;;;;;11.70;92.50;;;12.19;59.52;97472.59;4906043;28;123806;-80
2023/03/26 09:47:13;;;;;;;;;;;11.80;92.50;;;12.32;59.43;97465.03;4914357;28;114060;-84
2023/03/26 09:49:50;;;;;;;;;;;11.90;92.70;;;12.46;59.39;97479.22;4916857;28;113911;-86
2023/03/26 09:52:50;;;;;;;;;;;12.00;92.80;;;12.59;58.83;97468.84;4902637;28;124994;-84
2023/03/26 09:55:47;;;;;;;;;;;12.10;92.70;;;12.70;58.71;97475.47;4917853;28;123925;-82
2023/03/26 09:59:00;;;;;;;;;;;12.20;92.50;;;12.81;58.14;97471.00;4904306;28;114984;-87
2023/03/26 10:02:21;;;;;;;;;;;12.30;92.20;;;12.88;57.26;97464.00;4868283;28;113766;-85
2023/03/26 10:05:12;;;;;;;;;;;12.40;91.70;;;12.90;56.80;97459.72;4826619;29;124456;-87
2023/03/26 10:08:11;;;;;;;;;;;12.40;91.40;;;12.96;56.96;97449.16;4897864;28;123751;-84
2023/03/26 10:11:01;;;;;;;;;;;12.50;91.30;;;13.05;56.56;97456.06;4896061;28;114513;-87
2023/03/26 10:13:35;;;;;;;;;;;12.60;91.30;;;13.13;56.18;97447.94;4901180;28;114910;-87
2023/03/26 10:16:33;;;;;;;;;;;12.70;91.10;;;13.19;55.69;97457.56;4906076;28;123806;-86
2023/03/26 10:19:48;;;;;;;;;;;12.80;90.80;;;13.20;55.30;97457.22;4901962;28;123231;-86
2023/03/26 10:22:33;;;;;;;;;;;12.80;90.50;;;13.22;54.83;97445.75;4870770;28;113514;-85
2023/03/26 10:25:21;;;;;;;;;;;12.80;90.20;;;13.23;54.69;97442.63;4897400;28;114203;-85
2023/03/26 10:27:53;;;;;;;;;;;12.90;90.10;;;13.31;54.63;97451.94;4898366;28;124048;-86
2023/03/26 10:30:35;;;;;;;;;;;12.90;90.00;;;13.39;54.30;97447.34;4887874;28;122857;-85
2023/03/26 10:33:38;;;;;;;;;;;13.00;90.00;;;13.45;54.14;97440.31;4905491;28;116213;-87
2023/03/26 10:36:28;;;;;;;;;;;13.00;89.70;;;13.50;53.42;97425.38;4900615;28;114930;-87
2023/03/26 10:39:14;;;;;;;;;;;13.10;88.90;;;13.56;52.86;97443.31;4887793;28;123383;-88
2023/03/26 10:41:59;;;;;;;;;;;13.20;88.40;;;13.62;51.75;97427.97;4955566;28;123886;-85
2023/03/26 10:44:50;;;;;;;;;;;13.20;86.80;;;13.69;50.08;97434.47;4954024;28;114676;-81
2023/03/26 10:47:51;;;;;;;;;;;13.30;85.10;;;13.72;47.68;97424.59;4968260;28;113507;-86
2023/03/26 10:50:40;;;;;;;;;;;13.30;82.10;;;13.78;47.01;97438.97;4982594;28;123601;-87
2023/03/26 10:53:35;;;;;;;;;;;13.40;80.00;;;13.84;46.76;97435.56;4968738;28;123513;-86
2023/03/26 10:56:21;;;;;;;;;;;13.40;79.60;;;13.89;45.43;97442.78;4965175;28;113704;-84
2023/03/26 10:58:47;;;;;;;;;;;13.50;77.90;;;13.97;44.45;97438.16;4962208;28;113160;-85
2023/03/26 11:01:48;;;;;;;;;;;13.50;75.90;;;14.04;44.27;97435.53;4960582;28;124483;-84
2023/03/26 11:04:37;;;;;;;;;;;13.60;75.80;;;14.12;44.37;97440.81;4969517;28;123657;-86
2023/03/26 11:07:45;;;;;;;;;;;13.70;75.90;;;14.23;43.19;97440.22;4966360;28;114544;-85
2023/03/26 11:10:33;;;;;;;;;;;13.80;74.00;;;14.29;42.40;97449.84;4932054;28;113760;-85
2023/03/26 11:13:02;;;;;;;;;;;13.90;72.50;;;14.36;41.79;97455.53;4960320;28;125379;-84
2023/03/26 11:15:37;;;;;;;;;;;13.90;71.80;;;14.44;41.04;97462.81;4952149;28;123895;-80
2023/03/26 11:18:40;;;;;;;;;;;14.00;70.80;;;14.47;41.94;97433.47;4981036;28;114420;-83
2023/03/26 11:21:24;;;;;;;;;;;14.00;71.50;;;14.60;41.80;97423.00;4960304;28;113510;-83
2023/03/26 11:24:34;;;;;;;;;;;14.20;71.70;;;14.68;40.91;97446.97;4961670;28;124021;-84
2023/03/26 11:27:11;;;;;;;;;;;14.30;70.70;;;14.77;40.56;97428.03;4960051;28;124718;-86
2023/03/26 11:29:41;;;;;;;;;;;14.30;69.50;;;14.84;40.82;97416.22;4973816;28;115719;-85
2023/03/26 11:32:13;;;;;;;;;;;14.40;69.70;;;14.94;40.74;97423.94;4978712;28;114148;-86
2023/03/26 11:34:59;;;;;;;;;;;14.50;69.80;;;15.07;41.02;97413.38;4969822;28;123991;-84
2023/03/26 11:37:39;;;;;;;;;;;14.60;70.10;;;15.20;41.14;97409.16;4953158;28;124378;-86
2023/03/26 11:40:36;;;;;;;;;;;14.70;70.70;;;15.33;40.94;97413.31;4964504;28;113353;-85
2023/03/26 11:43:09;;;;;;;;;;;14.80;70.70;;;15.45;41.09;97417.88;4961839;28;113148;-86
2023/03/26 11:45:39;;;;;;;;;;;14.90;70.90;;;15.49;41.16;97404.78;4949991;28;124381;-85
2023/03/26 11:48:17;;;;;;;;;;;15.00;71.00;;;15.55;40.68;97410.81;4956805;28;123798;-84
2023/03/26 11:50:48;;;;;;;;;;;15.00;69.70;;;15.55;39.87;97402.44;4959467;28;114531;-84
2023/03/26 11:53:16;;;;;;;;;;;15.00;68.70;;;15.56;39.60;97371.47;4966000;28;113087;-85